sensor_id;sensor_type;location;lat;lon;timestamp;temperature;humidity
4406;DHT22;2216;53.806;11.598;2023-02-28T00:00:35;-0.40;74.30
4406;DHT22;2216;53.806;11.598;2023-02-28T00:03:01;-0.40;74.20
4406;DHT22;2216;53.806;11.598;2023-02-28T00:05:28;-0.40;74.20
4406;DHT22;2216;53.806;11.598;2023-02-28T00:07:54;-0.50;74.20
4406;DHT22;2216;53.806;11.598;2023-02-28T00:10:23;-0.50;74.10
4406;DHT22;2216;53.806;11.598;2023-02-28T00:12:51;-0.60;74.10
4406;DHT22;2216;53.806;11.598;2023-02-28T00:15:18;-0.60;74.20
4406;DHT22;2216;53.806;11.598;2023-02-28T00:17:44;-0.60;74.20
4406;DHT22;2216;53.806;11.598;2023-02-28T00:20:11;-0.60;74.20
4406;DHT22;2216;53.806;11.598;2023-02-28T00:22:39;-0.60;74.30
4406;DHT22;2216;53.806;11.598;2023-02-28T00:25:11;-0.70;74.20
4406;DHT22;2216;53.806;11.598;2023-02-28T00:27:39;-0.70;74.20
4406;DHT22;2216;53.806;11.598;2023-02-28T00:30:09;-0.70;74.20
4406;DHT22;2216;53.806;11.598;2023-02-28T00:32:37;-0.70;74.20
4406;DHT22;2216;53.806;11.598;2023-02-28T00:35:04;-0.80;74.20
4406;DHT22;2216;53.806;11.598;2023-02-28T00:37:30;-0.80;74.20
4406;DHT22;2216;53.806;11.598;2023-02-28T00:39:56;-0.80;74.20
4406;DHT22;2216;53.806;11.598;2023-02-28T00:42:22;-0.90;74.10
4406;DHT22;2216;53.806;11.598;2023-02-28T00:44:48;-0.90;74.10
4406;DHT22;2216;53.806;11.598;2023-02-28T00:47:14;-0.90;74.20
4406;DHT22;2216;53.806;11.598;2023-02-28T00:49:40;-0.90;74.20
4406;DHT22;2216;53.806;11.598;2023-02-28T00:52:05;-0.90;74.30
4406;DHT22;2216;53.806;11.598;2023-02-28T00:54:31;-1.00;74.20
4406;DHT22;2216;53.806;11.598;2023-02-28T00:56:57;-1.00;74.20
4406;DHT22;2216;53.806;11.598;2023-02-28T00:59:22;-1.00;74.20
4406;DHT22;2216;53.806;11.598;2023-02-28T01:01:48;-1.10;74.20
4406;DHT22;2216;53.806;11.598;2023-02-28T01:04:14;-1.00;74.30
4406;DHT22;2216;53.806;11.598;2023-02-28T01:06:40;-1.10;74.20
4406;DHT22;2216;53.806;11.598;2023-02-28T01:09:07;-1.00;75.00
4406;DHT22;2216;53.806;11.598;2023-02-28T01:11:33;-1.10;74.20
4406;DHT22;2216;53.806;11.598;2023-02-28T01:13:59;-1.20;74.20
4406;DHT22;2216;53.806;11.598;2023-02-28T01:16:25;-1.20;74.20
4406;DHT22;2216;53.806;11.598;2023-02-28T01:18:51;-1.20;74.20
4406;DHT22;2216;53.806;11.598;2023-02-28T01:21:20;-1.30;74.10
4406;DHT22;2216;53.806;11.598;2023-02-28T01:23:46;-1.30;74.20
4406;DHT22;2216;53.806;11.598;2023-02-28T01:26:16;-1.30;74.20
4406;DHT22;2216;53.806;11.598;2023-02-28T01:28:43;-1.30;74.20
4406;DHT22;2216;53.806;11.598;2023-02-28T01:31:10;-1.30;74.20
4406;DHT22;2216;53.806;11.598;2023-02-28T01:33:36;-1.30;74.30
4406;DHT22;2216;53.806;11.598;2023-02-28T01:36:05;-1.40;74.20
4406;DHT22;2216;53.806;11.598;2023-02-28T01:38:33;-1.40;74.30
4406;DHT22;2216;53.806;11.598;2023-02-28T01:40:59;-1.40;74.30
4406;DHT22;2216;53.806;11.598;2023-02-28T01:43:27;-1.40;74.30
4406;DHT22;2216;53.806;11.598;2023-02-28T01:45:56;-1.50;74.20
4406;DHT22;2216;53.806;11.598;2023-02-28T01:48:26;-1.50;75.00
4406;DHT22;2216;53.806;11.598;2023-02-28T01:50:58;-1.50;74.30
4406;DHT22;2216;53.806;11.598;2023-02-28T01:53:41;-1.50;74.30
4406;DHT22;2216;53.806;11.598;2023-02-28T01:56:16;-1.50;74.20
4406;DHT22;2216;53.806;11.598;2023-02-28T01:58:50;-1.60;74.20
4406;DHT22;2216;53.806;11.598;2023-02-28T02:01:16;-1.60;74.20
4406;DHT22;2216;53.806;11.598;2023-02-28T02:04:01;-1.60;74.30
4406;DHT22;2216;53.806;11.598;2023-02-28T02:06:34;-1.60;74.30
4406;DHT22;2216;53.806;11.598;2023-02-28T02:09:03;-1.60;74.40
4406;DHT22;2216;53.806;11.598;2023-02-28T02:11:28;-1.60;74.40
4406;DHT22;2216;53.806;11.598;2023-02-28T02:20:11;-1.60;74.50
4406;DHT22;2216;53.806;11.598;2023-02-28T02:25:55;-1.70;74.30
4406;DHT22;2216;53.806;11.598;2023-02-28T02:29:01;-1.70;74.30
4406;DHT22;2216;53.806;11.598;2023-02-28T02:34:37;-1.70;74.30
4406;DHT22;2216;53.806;11.598;2023-02-28T02:37:25;-1.70;74.30
4406;DHT22;2216;53.806;11.598;2023-02-28T02:40:18;-1.80;74.30
4406;DHT22;2216;53.806;11.598;2023-02-28T02:43:01;-1.80;74.20
4406;DHT22;2216;53.806;11.598;2023-02-28T02:45:43;-1.80;74.30
4406;DHT22;2216;53.806;11.598;2023-02-28T02:48:13;-1.80;74.40
4406;DHT22;2216;53.806;11.598;2023-02-28T02:50:51;-1.80;74.30
4406;DHT22;2216;53.806;11.598;2023-02-28T02:53:28;-1.80;74.40
4406;DHT22;2216;53.806;11.598;2023-02-28T02:55:56;-1.90;74.30
4406;DHT22;2216;53.806;11.598;2023-02-28T02:58:30;-1.90;74.30
4406;DHT22;2216;53.806;11.598;2023-02-28T03:01:01;-1.90;74.20
4406;DHT22;2216;53.806;11.598;2023-02-28T03:03:29;-1.90;75.00
4406;DHT22;2216;53.806;11.598;2023-02-28T03:06:00;-1.90;74.30
4406;DHT22;2216;53.806;11.598;2023-02-28T03:08:27;-1.90;74.30
4406;DHT22;2216;53.806;11.598;2023-02-28T03:10:59;-1.90;74.30
4406;DHT22;2216;53.806;11.598;2023-02-28T03:22:19;-1.90;74.30
4406;DHT22;2216;53.806;11.598;2023-02-28T03:25:16;-2.00;74.20
4406;DHT22;2216;53.806;11.598;2023-02-28T03:28:07;-2.00;74.20
4406;DHT22;2216;53.806;11.598;2023-02-28T03:30:49;-2.10;74.20
4406;DHT22;2216;53.806;11.598;2023-02-28T03:33:30;-2.10;74.20
4406;DHT22;2216;53.806;11.598;2023-02-28T03:36:26;-2.10;74.30
4406;DHT22;2216;53.806;11.598;2023-02-28T03:39:02;-2.10;74.30
4406;DHT22;2216;53.806;11.598;2023-02-28T03:41:42;-2.10;74.30
4406;DHT22;2216;53.806;11.598;2023-02-28T03:44:27;-2.20;74.30
4406;DHT22;2216;53.806;11.598;2023-02-28T03:47:21;-2.10;74.30
4406;DHT22;2216;53.806;11.598;2023-02-28T03:49:53;-2.20;74.30
4406;DHT22;2216;53.806;11.598;2023-02-28T03:52:26;-2.20;74.30
4406;DHT22;2216;53.806;11.598;2023-02-28T03:54:56;-2.20;74.20
4406;DHT22;2216;53.806;11.598;2023-02-28T04:00:20;-2.20;74.30
4406;DHT22;2216;53.806;11.598;2023-02-28T04:02:47;-2.20;74.30
4406;DHT22;2216;53.806;11.598;2023-02-28T04:05:18;-2.20;74.30
4406;DHT22;2216;53.806;11.598;2023-02-28T04:07:45;-2.30;74.20
4406;DHT22;2216;53.806;11.598;2023-02-28T04:10:11;-2.10;74.40
4406;DHT22;2216;53.806;11.598;2023-02-28T04:12:38;-2.30;74.30
4406;DHT22;2216;53.806;11.598;2023-02-28T04:15:04;-2.30;74.30
4406;DHT22;2216;53.806;11.598;2023-02-28T04:17:30;-2.30;74.30
4406;DHT22;2216;53.806;11.598;2023-02-28T04:19:56;-2.30;74.30
4406;DHT22;2216;53.806;11.598;2023-02-28T04:22:22;-2.30;74.30
4406;DHT22;2216;53.806;11.598;2023-02-28T04:24:51;-2.30;74.40
4406;DHT22;2216;53.806;11.598;2023-02-28T04:27:18;-2.30;74.30
4406;DHT22;2216;53.806;11.598;2023-02-28T04:29:44;-2.30;74.30
4406;DHT22;2216;53.806;11.598;2023-02-28T04:32:10;-2.40;74.20
4406;DHT22;2216;53.806;11.598;2023-02-28T04:34:36;-2.40;74.20
4406;DHT22;2216;53.806;11.598;2023-02-28T04:37:02;-2.40;74.20
4406;DHT22;2216;53.806;11.598;2023-02-28T04:39:28;-2.40;74.20
4406;DHT22;2216;53.806;11.598;2023-02-28T04:41:55;-2.40;74.20
4406;DHT22;2216;53.806;11.598;2023-02-28T04:44:22;-2.40;74.30
4406;DHT22;2216;53.806;11.598;2023-02-28T04:46:48;-2.40;74.30
4406;DHT22;2216;53.806;11.598;2023-02-28T04:49:14;-2.40;74.30
4406;DHT22;2216;53.806;11.598;2023-02-28T04:51:40;-2.50;74.20
4406;DHT22;2216;53.806;11.598;2023-02-28T04:54:06;-2.40;74.30
4406;DHT22;2216;53.806;11.598;2023-02-28T04:56:33;-2.50;74.20
4406;DHT22;2216;53.806;11.598;2023-02-28T04:58:58;-2.50;74.20
4406;DHT22;2216;53.806;11.598;2023-02-28T05:01:29;-2.50;74.20
4406;DHT22;2216;53.806;11.598;2023-02-28T05:03:57;-2.30;74.40
4406;DHT22;2216;53.806;11.598;2023-02-28T05:06:26;-2.60;74.20
4406;DHT22;2216;53.806;11.598;2023-02-28T05:08:53;-2.60;74.20
4406;DHT22;2216;53.806;11.598;2023-02-28T05:11:24;-2.60;74.20
4406;DHT22;2216;53.806;11.598;2023-02-28T05:13:58;-2.60;74.20
4406;DHT22;2216;53.806;11.598;2023-02-28T05:16:24;-2.60;74.20
4406;DHT22;2216;53.806;11.598;2023-02-28T05:18:50;-2.70;74.20
4406;DHT22;2216;53.806;11.598;2023-02-28T05:21:34;-2.70;74.20
4406;DHT22;2216;53.806;11.598;2023-02-28T05:24:06;-2.70;74.20
4406;DHT22;2216;53.806;11.598;2023-02-28T05:26:39;-2.70;74.20
4406;DHT22;2216;53.806;11.598;2023-02-28T05:29:06;-2.70;74.30
4406;DHT22;2216;53.806;11.598;2023-02-28T05:31:32;-2.70;74.20
4406;DHT22;2216;53.806;11.598;2023-02-28T05:33:58;-2.70;74.30
4406;DHT22;2216;53.806;11.598;2023-02-28T05:36:24;-2.70;74.30
4406;DHT22;2216;53.806;11.598;2023-02-28T05:38:51;-2.80;74.20
4406;DHT22;2216;53.806;11.598;2023-02-28T05:41:18;-2.80;74.20
4406;DHT22;2216;53.806;11.598;2023-02-28T05:43:45;-2.80;74.20
4406;DHT22;2216;53.806;11.598;2023-02-28T05:46:11;-2.80;74.20
4406;DHT22;2216;53.806;11.598;2023-02-28T05:48:39;-2.80;74.20
4406;DHT22;2216;53.806;11.598;2023-02-28T05:51:07;-2.80;74.20
4406;DHT22;2216;53.806;11.598;2023-02-28T05:53:34;-2.80;74.20
4406;DHT22;2216;53.806;11.598;2023-02-28T05:56:01;-2.90;74.20
4406;DHT22;2216;53.806;11.598;2023-02-28T05:58:27;-2.90;74.20
4406;DHT22;2216;53.806;11.598;2023-02-28T06:00:59;-2.90;74.40
4406;DHT22;2216;53.806;11.598;2023-02-28T06:03:25;-2.90;74.40
4406;DHT22;2216;53.806;11.598;2023-02-28T06:05:51;-2.90;74.40
4406;DHT22;2216;53.806;11.598;2023-02-28T06:08:17;-2.90;74.40
4406;DHT22;2216;53.806;11.598;2023-02-28T06:10:43;-2.90;74.40
4406;DHT22;2216;53.806;11.598;2023-02-28T06:13:10;-2.90;74.40
4406;DHT22;2216;53.806;11.598;2023-02-28T06:15:38;-2.90;74.40
4406;DHT22;2216;53.806;11.598;2023-02-28T06:18:04;-2.90;74.40
4406;DHT22;2216;53.806;11.598;2023-02-28T06:20:30;-2.90;74.50
4406;DHT22;2216;53.806;11.598;2023-02-28T06:22:56;-2.80;74.60
4406;DHT22;2216;53.806;11.598;2023-02-28T06:25:27;-2.80;74.60
4406;DHT22;2216;53.806;11.598;2023-02-28T06:27:54;-2.80;74.70
4406;DHT22;2216;53.806;11.598;2023-02-28T06:30:20;-2.80;74.80
4406;DHT22;2216;53.806;11.598;2023-02-28T06:32:52;-2.70;74.90
4406;DHT22;2216;53.806;11.598;2023-02-28T06:35:18;-2.70;75.00
4406;DHT22;2216;53.806;11.598;2023-02-28T06:37:44;-2.60;75.10
4406;DHT22;2216;53.806;11.598;2023-02-28T06:40:10;-2.60;75.10
4406;DHT22;2216;53.806;11.598;2023-02-28T06:42:38;-2.60;75.10
4406;DHT22;2216;53.806;11.598;2023-02-28T06:45:04;-2.50;75.20
4406;DHT22;2216;53.806;11.598;2023-02-28T06:47:35;-2.40;75.40
4406;DHT22;2216;53.806;11.598;2023-02-28T06:50:02;-2.40;75.40
4406;DHT22;2216;53.806;11.598;2023-02-28T06:52:27;-2.30;75.50
4406;DHT22;2216;53.806;11.598;2023-02-28T06:54:53;-2.20;75.60
4406;DHT22;2216;53.806;11.598;2023-02-28T06:57:27;-2.20;75.70
4406;DHT22;2216;53.806;11.598;2023-02-28T06:59:55;-2.10;75.80
4406;DHT22;2216;53.806;11.598;2023-02-28T07:02:21;-2.00;76.00
4406;DHT22;2216;53.806;11.598;2023-02-28T07:04:47;-1.90;76.10
4406;DHT22;2216;53.806;11.598;2023-02-28T07:07:12;-1.80;76.20
4406;DHT22;2216;53.806;11.598;2023-02-28T07:09:38;-1.70;76.40
4406;DHT22;2216;53.806;11.598;2023-02-28T07:12:04;-1.70;76.40
4406;DHT22;2216;53.806;11.598;2023-02-28T07:14:30;-1.60;76.50
4406;DHT22;2216;53.806;11.598;2023-02-28T07:16:56;-1.50;76.40
4406;DHT22;2216;53.806;11.598;2023-02-28T07:19:21;-1.40;76.50
4406;DHT22;2216;53.806;11.598;2023-02-28T07:21:47;-1.30;76.40
4406;DHT22;2216;53.806;11.598;2023-02-28T07:24:12;-1.30;76.40
4406;DHT22;2216;53.806;11.598;2023-02-28T07:26:41;-1.20;76.40
4406;DHT22;2216;53.806;11.598;2023-02-28T07:29:06;-1.10;76.30
4406;DHT22;2216;53.806;11.598;2023-02-28T07:31:32;-1.10;76.30
4406;DHT22;2216;53.806;11.598;2023-02-28T07:33:58;-1.00;76.30
4406;DHT22;2216;53.806;11.598;2023-02-28T07:36:24;-1.00;76.20
4406;DHT22;2216;53.806;11.598;2023-02-28T07:38:49;-0.90;76.20
4406;DHT22;2216;53.806;11.598;2023-02-28T07:41:17;-0.80;76.30
4406;DHT22;2216;53.806;11.598;2023-02-28T07:43:43;-0.80;76.20
4406;DHT22;2216;53.806;11.598;2023-02-28T07:46:11;-0.70;76.30
4406;DHT22;2216;53.806;11.598;2023-02-28T07:48:40;-0.60;76.40
4406;DHT22;2216;53.806;11.598;2023-02-28T07:51:06;-0.50;76.40
4406;DHT22;2216;53.806;11.598;2023-02-28T07:53:32;-0.50;76.40
4406;DHT22;2216;53.806;11.598;2023-02-28T07:55:59;-0.40;76.40
4406;DHT22;2216;53.806;11.598;2023-02-28T07:58:27;-0.30;76.50
4406;DHT22;2216;53.806;11.598;2023-02-28T08:00:54;-0.20;76.60
4406;DHT22;2216;53.806;11.598;2023-02-28T08:03:21;-0.20;76.60
4406;DHT22;2216;53.806;11.598;2023-02-28T08:05:48;0.00;76.70
4406;DHT22;2216;53.806;11.598;2023-02-28T08:08:15;0.10;76.70
4406;DHT22;2216;53.806;11.598;2023-02-28T08:10:43;0.10;76.70
4406;DHT22;2216;53.806;11.598;2023-02-28T08:13:09;0.20;76.90
4406;DHT22;2216;53.806;11.598;2023-02-28T08:15:34;0.40;77.00
4406;DHT22;2216;53.806;11.598;2023-02-28T08:18:01;0.50;77.10
4406;DHT22;2216;53.806;11.598;2023-02-28T08:20:27;0.60;77.20
4406;DHT22;2216;53.806;11.598;2023-02-28T08:22:52;0.70;77.20
4406;DHT22;2216;53.806;11.598;2023-02-28T08:25:18;0.80;77.10
4406;DHT22;2216;53.806;11.598;2023-02-28T08:27:44;1.00;77.10
4406;DHT22;2216;53.806;11.598;2023-02-28T08:30:14;1.10;77.00
4406;DHT22;2216;53.806;11.598;2023-02-28T08:32:40;1.20;76.90
4406;DHT22;2216;53.806;11.598;2023-02-28T08:35:06;1.20;76.90
4406;DHT22;2216;53.806;11.598;2023-02-28T08:37:34;1.30;76.80
4406;DHT22;2216;53.806;11.598;2023-02-28T08:40:00;1.40;76.80
4406;DHT22;2216;53.806;11.598;2023-02-28T08:42:25;1.50;76.90
4406;DHT22;2216;53.806;11.598;2023-02-28T08:44:51;1.60;76.90
4406;DHT22;2216;53.806;11.598;2023-02-28T08:47:17;1.70;76.90
4406;DHT22;2216;53.806;11.598;2023-02-28T08:49:42;1.70;76.90
4406;DHT22;2216;53.806;11.598;2023-02-28T08:52:08;1.90;77.90
4406;DHT22;2216;53.806;11.598;2023-02-28T08:54:35;2.00;77.40
4406;DHT22;2216;53.806;11.598;2023-02-28T08:57:01;2.10;77.60
4406;DHT22;2216;53.806;11.598;2023-02-28T08:59:27;2.30;77.80
4406;DHT22;2216;53.806;11.598;2023-02-28T09:01:53;2.40;78.00
4406;DHT22;2216;53.806;11.598;2023-02-28T09:04:19;2.60;78.10
4406;DHT22;2216;53.806;11.598;2023-02-28T09:06:44;2.80;78.30
4406;DHT22;2216;53.806;11.598;2023-02-28T09:09:10;3.00;78.30
4406;DHT22;2216;53.806;11.598;2023-02-28T09:11:37;3.10;78.10
4406;DHT22;2216;53.806;11.598;2023-02-28T09:14:03;3.30;77.90
4406;DHT22;2216;53.806;11.598;2023-02-28T09:16:30;3.40;77.80
4406;DHT22;2216;53.806;11.598;2023-02-28T09:18:59;3.50;77.70
4406;DHT22;2216;53.806;11.598;2023-02-28T09:21:24;3.60;77.80
4406;DHT22;2216;53.806;11.598;2023-02-28T09:23:50;3.80;78.00
4406;DHT22;2216;53.806;11.598;2023-02-28T09:26:25;3.90;78.10
4406;DHT22;2216;53.806;11.598;2023-02-28T09:28:53;4.10;78.30
4406;DHT22;2216;53.806;11.598;2023-02-28T09:31:25;4.30;78.50
4406;DHT22;2216;53.806;11.598;2023-02-28T09:33:55;4.50;78.50
4406;DHT22;2216;53.806;11.598;2023-02-28T09:36:23;4.80;78.60
4406;DHT22;2216;53.806;11.598;2023-02-28T09:38:50;4.90;78.40
4406;DHT22;2216;53.806;11.598;2023-02-28T09:41:25;5.00;78.20
4406;DHT22;2216;53.806;11.598;2023-02-28T09:43:56;5.20;78.40
4406;DHT22;2216;53.806;11.598;2023-02-28T09:46:44;5.40;78.50
4406;DHT22;2216;53.806;11.598;2023-02-28T09:49:19;5.60;78.20
4406;DHT22;2216;53.806;11.598;2023-02-28T09:52:03;5.70;78.00
4406;DHT22;2216;53.806;11.598;2023-02-28T09:54:34;5.90;78.20
4406;DHT22;2216;53.806;11.598;2023-02-28T10:00:18;6.30;78.20
4406;DHT22;2216;53.806;11.598;2023-02-28T10:05:59;6.60;78.30
4406;DHT22;2216;53.806;11.598;2023-02-28T10:09:23;6.90;78.40
4406;DHT22;2216;53.806;11.598;2023-02-28T10:11:27;7.10;78.50
4406;DHT22;2216;53.806;11.598;2023-02-28T10:13:56;7.30;78.50
4406;DHT22;2216;53.806;11.598;2023-02-28T10:17:03;7.50;78.30
4406;DHT22;2216;53.806;11.598;2023-02-28T10:20:01;7.70;77.90
4406;DHT22;2216;53.806;11.598;2023-02-28T10:22:40;7.80;77.90
4406;DHT22;2216;53.806;11.598;2023-02-28T10:25:37;8.00;78.00
4406;DHT22;2216;53.806;11.598;2023-02-28T10:28:15;8.20;78.30
4406;DHT22;2216;53.806;11.598;2023-02-28T10:30:46;8.40;78.40
4406;DHT22;2216;53.806;11.598;2023-02-28T10:33:30;8.60;78.60
4406;DHT22;2216;53.806;11.598;2023-02-28T10:35:59;8.80;78.40
4406;DHT22;2216;53.806;11.598;2023-02-28T10:38:31;8.90;78.50
4406;DHT22;2216;53.806;11.598;2023-02-28T10:41:10;8.90;78.20
4406;DHT22;2216;53.806;11.598;2023-02-28T10:43:42;9.30;78.20
4406;DHT22;2216;53.806;11.598;2023-02-28T10:46:12;9.40;78.00
4406;DHT22;2216;53.806;11.598;2023-02-28T10:49:00;9.60;77.80
4406;DHT22;2216;53.806;11.598;2023-02-28T10:51:36;9.70;78.00
4406;DHT22;2216;53.806;11.598;2023-02-28T10:54:04;9.90;78.20
4406;DHT22;2216;53.806;11.598;2023-02-28T10:56:31;10.10;78.10
4406;DHT22;2216;53.806;11.598;2023-02-28T10:59:24;10.20;77.60
4406;DHT22;2216;53.806;11.598;2023-02-28T11:01:52;10.30;77.30
4406;DHT22;2216;53.806;11.598;2023-02-28T11:04:19;10.30;76.90
4406;DHT22;2216;53.806;11.598;2023-02-28T11:06:47;10.30;76.80
4406;DHT22;2216;53.806;11.598;2023-02-28T11:09:27;10.30;76.70
4406;DHT22;2216;53.806;11.598;2023-02-28T11:11:55;10.40;76.90
4406;DHT22;2216;53.806;11.598;2023-02-28T11:14:24;10.40;76.90
4406;DHT22;2216;53.806;11.598;2023-02-28T11:16:52;10.50;76.80
4406;DHT22;2216;53.806;11.598;2023-02-28T11:19:27;10.50;76.90
4406;DHT22;2216;53.806;11.598;2023-02-28T11:22:01;10.50;77.30
4406;DHT22;2216;53.806;11.598;2023-02-28T11:25:06;10.60;77.40
4406;DHT22;2216;53.806;11.598;2023-02-28T11:27:45;10.70;76.50
4406;DHT22;2216;53.806;11.598;2023-02-28T11:30:28;10.70;76.40
4406;DHT22;2216;53.806;11.598;2023-02-28T11:35:59;10.80;76.30
4406;DHT22;2216;53.806;11.598;2023-02-28T11:38:27;10.80;76.50
4406;DHT22;2216;53.806;11.598;2023-02-28T11:41:01;10.90;76.30
4406;DHT22;2216;53.806;11.598;2023-02-28T11:46:44;11.00;76.80
4406;DHT22;2216;53.806;11.598;2023-02-28T11:58:11;11.40;77.60
4406;DHT22;2216;53.806;11.598;2023-02-28T12:04:38;11.60;77.60
4406;DHT22;2216;53.806;11.598;2023-02-28T12:07:21;11.80;77.70
4406;DHT22;2216;53.806;11.598;2023-02-28T12:10:20;11.90;77.70
4406;DHT22;2216;53.806;11.598;2023-02-28T12:26:51;12.20;77.00
4406;DHT22;2216;53.806;11.598;2023-02-28T12:29:31;12.30;77.20
4406;DHT22;2216;53.806;11.598;2023-02-28T12:32:23;12.30;77.20
4406;DHT22;2216;53.806;11.598;2023-02-28T12:34:58;12.40;77.10
4406;DHT22;2216;53.806;11.598;2023-02-28T12:37:59;12.40;75.60
4406;DHT22;2216;53.806;11.598;2023-02-28T12:40:31;12.40;76.10
4406;DHT22;2216;53.806;11.598;2023-02-28T12:43:07;12.30;75.40
4406;DHT22;2216;53.806;11.598;2023-02-28T12:46:44;12.20;74.80
4406;DHT22;2216;53.806;11.598;2023-02-28T12:49:02;12.10;75.00
4406;DHT22;2216;53.806;11.598;2023-02-28T12:51:32;11.90;75.50
4406;DHT22;2216;53.806;11.598;2023-02-28T12:54:21;11.90;75.90
4406;DHT22;2216;53.806;11.598;2023-02-28T12:59:45;11.80;74.10
4406;DHT22;2216;53.806;11.598;2023-02-28T13:08:03;11.60;75.20
4406;DHT22;2216;53.806;11.598;2023-02-28T13:10:45;11.50;74.20
4406;DHT22;2216;53.806;11.598;2023-02-28T13:13:19;11.30;74.20
4406;DHT22;2216;53.806;11.598;2023-02-28T13:18:35;11.10;74.50
4406;DHT22;2216;53.806;11.598;2023-02-28T13:21:08;11.00;75.00
4406;DHT22;2216;53.806;11.598;2023-02-28T13:28:59;10.90;75.50
4406;DHT22;2216;53.806;11.598;2023-02-28T13:31:26;10.90;75.80
4406;DHT22;2216;53.806;11.598;2023-02-28T13:36:29;10.90;75.80
4406;DHT22;2216;53.806;11.598;2023-02-28T13:38:56;10.90;75.50
4406;DHT22;2216;53.806;11.598;2023-02-28T13:57:30;10.80;75.70
4406;DHT22;2216;53.806;11.598;2023-02-28T14:00:15;10.80;75.40
4406;DHT22;2216;53.806;11.598;2023-02-28T14:11:34;10.30;74.10
4406;DHT22;2216;53.806;11.598;2023-02-28T14:14:02;10.20;74.40
4406;DHT22;2216;53.806;11.598;2023-02-28T14:16:45;10.20;74.90
4406;DHT22;2216;53.806;11.598;2023-02-28T14:22:39;10.10;75.00
4406;DHT22;2216;53.806;11.598;2023-02-28T14:25:33;10.10;75.10
4406;DHT22;2216;53.806;11.598;2023-02-28T14:28:27;10.10;74.90
4406;DHT22;2216;53.806;11.598;2023-02-28T14:31:13;10.00;74.80
4406;DHT22;2216;53.806;11.598;2023-02-28T14:33:54;9.90;74.90
4406;DHT22;2216;53.806;11.598;2023-02-28T14:36:39;9.90;74.90
4406;DHT22;2216;53.806;11.598;2023-02-28T14:39:12;9.80;74.90
4406;DHT22;2216;53.806;11.598;2023-02-28T14:41:41;9.80;74.80
4406;DHT22;2216;53.806;11.598;2023-02-28T14:44:23;9.70;74.60
4406;DHT22;2216;53.806;11.598;2023-02-28T14:46:57;9.70;74.60
4406;DHT22;2216;53.806;11.598;2023-02-28T14:49:32;9.60;74.60
4406;DHT22;2216;53.806;11.598;2023-02-28T14:54:39;9.50;74.80
4406;DHT22;2216;53.806;11.598;2023-02-28T14:57:05;9.40;74.50
4406;DHT22;2216;53.806;11.598;2023-02-28T14:59:33;9.40;74.30
4406;DHT22;2216;53.806;11.598;2023-02-28T15:02:21;9.30;74.20
4406;DHT22;2216;53.806;11.598;2023-02-28T15:04:59;9.20;74.40
4406;DHT22;2216;53.806;11.598;2023-02-28T15:07:26;9.20;74.60
4406;DHT22;2216;53.806;11.598;2023-02-28T15:10:08;9.20;74.80
4406;DHT22;2216;53.806;11.598;2023-02-28T15:12:35;9.10;74.90
4406;DHT22;2216;53.806;11.598;2023-02-28T15:15:01;9.10;74.80
4406;DHT22;2216;53.806;11.598;2023-02-28T15:17:27;9.10;74.80
4406;DHT22;2216;53.806;11.598;2023-02-28T15:19:54;9.00;74.80
4406;DHT22;2216;53.806;11.598;2023-02-28T15:22:31;9.00;74.90
4406;DHT22;2216;53.806;11.598;2023-02-28T15:25:02;9.00;74.90
4406;DHT22;2216;53.806;11.598;2023-02-28T15:27:32;9.00;74.90
4406;DHT22;2216;53.806;11.598;2023-02-28T15:30:01;9.00;75.00
4406;DHT22;2216;53.806;11.598;2023-02-28T15:32:38;8.90;74.90
4406;DHT22;2216;53.806;11.598;2023-02-28T15:35:26;8.90;74.80
4406;DHT22;2216;53.806;11.598;2023-02-28T15:38:02;8.80;74.60
4406;DHT22;2216;53.806;11.598;2023-02-28T15:40:42;8.80;74.40
4406;DHT22;2216;53.806;11.598;2023-02-28T15:43:27;8.70;74.10
4406;DHT22;2216;53.806;11.598;2023-02-28T15:46:02;8.60;74.20
4406;DHT22;2216;53.806;11.598;2023-02-28T15:48:35;8.50;74.20
4406;DHT22;2216;53.806;11.598;2023-02-28T15:51:16;8.50;74.20
4406;DHT22;2216;53.806;11.598;2023-02-28T15:53:54;8.30;74.00
4406;DHT22;2216;53.806;11.598;2023-02-28T15:56:28;8.30;74.10
4406;DHT22;2216;53.806;11.598;2023-02-28T15:58:56;8.20;74.10
4406;DHT22;2216;53.806;11.598;2023-02-28T16:01:29;8.10;74.10
4406;DHT22;2216;53.806;11.598;2023-02-28T16:04:03;8.00;74.20
4406;DHT22;2216;53.806;11.598;2023-02-28T16:06:38;8.00;74.20
4406;DHT22;2216;53.806;11.598;2023-02-28T16:09:14;7.90;74.20
4406;DHT22;2216;53.806;11.598;2023-02-28T16:11:52;7.90;74.20
4406;DHT22;2216;53.806;11.598;2023-02-28T16:14:21;7.80;74.20
4406;DHT22;2216;53.806;11.598;2023-02-28T16:16:55;7.70;74.20
4406;DHT22;2216;53.806;11.598;2023-02-28T16:19:22;7.60;74.10
4406;DHT22;2216;53.806;11.598;2023-02-28T16:21:49;7.60;74.20
4406;DHT22;2216;53.806;11.598;2023-02-28T16:24:15;7.50;74.20
4406;DHT22;2216;53.806;11.598;2023-02-28T16:26:42;7.40;74.10
4406;DHT22;2216;53.806;11.598;2023-02-28T16:29:17;7.40;74.10
4406;DHT22;2216;53.806;11.598;2023-02-28T16:31:47;7.30;74.00
4406;DHT22;2216;53.806;11.598;2023-02-28T16:34:13;7.20;73.90
4406;DHT22;2216;53.806;11.598;2023-02-28T16:36:39;7.10;73.90
4406;DHT22;2216;53.806;11.598;2023-02-28T16:39:05;7.00;73.80
4406;DHT22;2216;53.806;11.598;2023-02-28T16:41:31;6.90;73.70
4406;DHT22;2216;53.806;11.598;2023-02-28T16:43:58;6.80;73.60
4406;DHT22;2216;53.806;11.598;2023-02-28T16:46:32;6.70;73.50
4406;DHT22;2216;53.806;11.598;2023-02-28T16:48:59;6.70;73.60
4406;DHT22;2216;53.806;11.598;2023-02-28T16:51:25;6.50;73.50
4406;DHT22;2216;53.806;11.598;2023-02-28T16:53:51;6.40;73.50
4406;DHT22;2216;53.806;11.598;2023-02-28T16:56:25;6.20;73.40
4406;DHT22;2216;53.806;11.598;2023-02-28T16:58:51;6.10;73.30
4406;DHT22;2216;53.806;11.598;2023-02-28T17:01:21;5.90;73.20
4406;DHT22;2216;53.806;11.598;2023-02-28T17:03:47;5.80;73.30
4406;DHT22;2216;53.806;11.598;2023-02-28T17:06:19;5.70;73.20
4406;DHT22;2216;53.806;11.598;2023-02-28T17:08:51;5.60;73.30
4406;DHT22;2216;53.806;11.598;2023-02-28T17:11:18;5.50;73.30
4406;DHT22;2216;53.806;11.598;2023-02-28T17:13:44;5.20;73.20
4406;DHT22;2216;53.806;11.598;2023-02-28T17:18:59;5.10;73.30
4406;DHT22;2216;53.806;11.598;2023-02-28T17:21:27;5.00;73.30
4406;DHT22;2216;53.806;11.598;2023-02-28T17:23:53;4.80;73.10
4406;DHT22;2216;53.806;11.598;2023-02-28T17:26:20;5.00;73.40
4406;DHT22;2216;53.806;11.598;2023-02-28T17:28:47;4.70;73.20
4406;DHT22;2216;53.806;11.598;2023-02-28T17:31:13;4.60;73.20
4406;DHT22;2216;53.806;11.598;2023-02-28T17:33:39;4.70;73.40
4406;DHT22;2216;53.806;11.598;2023-02-28T17:36:05;4.30;73.30
4406;DHT22;2216;53.806;11.598;2023-02-28T17:38:32;4.20;73.30
4406;DHT22;2216;53.806;11.598;2023-02-28T17:40:57;4.10;73.30
4406;DHT22;2216;53.806;11.598;2023-02-28T17:43:27;4.10;73.30
4406;DHT22;2216;53.806;11.598;2023-02-28T17:45:55;4.00;73.30
4406;DHT22;2216;53.806;11.598;2023-02-28T17:48:21;3.80;73.30
4406;DHT22;2216;53.806;11.598;2023-02-28T17:50:46;3.70;73.30
4406;DHT22;2216;53.806;11.598;2023-02-28T17:53:12;3.70;73.40
4406;DHT22;2216;53.806;11.598;2023-02-28T17:55:38;3.60;73.40
4406;DHT22;2216;53.806;11.598;2023-02-28T17:58:04;3.50;73.30
4406;DHT22;2216;53.806;11.598;2023-02-28T18:00:30;3.40;73.40
4406;DHT22;2216;53.806;11.598;2023-02-28T18:02:58;3.40;73.50
4406;DHT22;2216;53.806;11.598;2023-02-28T18:05:24;3.20;73.40
4406;DHT22;2216;53.806;11.598;2023-02-28T18:07:50;3.20;73.50
4406;DHT22;2216;53.806;11.598;2023-02-28T18:10:20;3.10;73.40
4406;DHT22;2216;53.806;11.598;2023-02-28T18:12:48;3.10;73.50